sensor_id;sensor_type;location;lat;lon;timestamp;P1;durP1;ratioP1;P2;durP2;ratioP2
3922;SDS011;1976;51.694;6.256;2023-10-19T00:00:35;0.60;;;0.60;;
3922;SDS011;1976;51.694;6.256;2023-10-19T00:03:09;0.70;;;0.70;;
3922;SDS011;1976;51.694;6.256;2023-10-19T00:05:35;0.60;;;0.60;;
3922;SDS011;1976;51.694;6.256;2023-10-19T00:08:02;0.63;;;0.63;;
3922;SDS011;1976;51.694;6.256;2023-10-19T00:10:37;0.60;;;0.60;;
3922;SDS011;1976;51.694;6.256;2023-10-19T00:13:04;2.20;;;1.37;;
3922;SDS011;1976;51.694;6.256;2023-10-19T00:15:33;0.60;;;0.60;;
3922;SDS011;1976;51.694;6.256;2023-10-19T00:18:06;0.70;;;0.70;;
3922;SDS011;1976;51.694;6.256;2023-10-19T00:20:42;0.67;;;0.67;;
3922;SDS011;1976;51.694;6.256;2023-10-19T00:23:14;0.60;;;0.60;;
3922;SDS011;1976;51.694;6.256;2023-10-19T00:25:44;0.70;;;0.70;;
3922;SDS011;1976;51.694;6.256;2023-10-19T00:28:14;0.70;;;0.70;;
3922;SDS011;1976;51.694;6.256;2023-10-19T00:30:42;0.70;;;0.70;;
3922;SDS011;1976;51.694;6.256;2023-10-19T00:33:10;0.60;;;0.60;;
3922;SDS011;1976;51.694;6.256;2023-10-19T00:35:46;0.67;;;0.67;;
3922;SDS011;1976;51.694;6.256;2023-10-19T00:38:37;0.60;;;0.60;;
3922;SDS011;1976;51.694;6.256;2023-10-19T00:41:04;0.60;;;0.60;;
3922;SDS011;1976;51.694;6.256;2023-10-19T00:43:31;0.60;;;0.60;;
3922;SDS011;1976;51.694;6.256;2023-10-19T00:46:02;0.90;;;0.87;;
3922;SDS011;1976;51.694;6.256;2023-10-19T00:48:31;1.00;;;1.00;;
3922;SDS011;1976;51.694;6.256;2023-10-19T00:50:59;0.60;;;0.60;;
3922;SDS011;1976;51.694;6.256;2023-10-19T00:53:37;0.60;;;0.60;;
3922;SDS011;1976;51.694;6.256;2023-10-19T00:56:06;0.60;;;0.60;;
3922;SDS011;1976;51.694;6.256;2023-10-19T00:58:34;0.70;;;0.70;;
3922;SDS011;1976;51.694;6.256;2023-10-19T01:01:04;0.60;;;0.60;;
3922;SDS011;1976;51.694;6.256;2023-10-19T01:03:34;1.70;;;1.37;;
3922;SDS011;1976;51.694;6.256;2023-10-19T01:08:37;1.00;;;0.90;;
3922;SDS011;1976;51.694;6.256;2023-10-19T01:11:09;0.60;;;0.60;;
3922;SDS011;1976;51.694;6.256;2023-10-19T01:13:39;0.70;;;0.70;;
3922;SDS011;1976;51.694;6.256;2023-10-19T01:16:13;0.70;;;0.70;;
3922;SDS011;1976;51.694;6.256;2023-10-19T01:18:52;1.37;;;1.27;;
3922;SDS011;1976;51.694;6.256;2023-10-19T01:21:21;0.60;;;0.60;;
3922;SDS011;1976;51.694;6.256;2023-10-19T01:23:50;0.83;;;0.80;;
3922;SDS011;1976;51.694;6.256;2023-10-19T01:26:15;0.60;;;0.60;;
3922;SDS011;1976;51.694;6.256;2023-10-19T01:28:47;0.60;;;0.60;;
3922;SDS011;1976;51.694;6.256;2023-10-19T01:31:22;0.70;;;0.70;;
3922;SDS011;1976;51.694;6.256;2023-10-19T01:33:55;0.70;;;0.70;;
3922;SDS011;1976;51.694;6.256;2023-10-19T01:36:25;0.60;;;0.60;;
3922;SDS011;1976;51.694;6.256;2023-10-19T01:38:55;0.60;;;0.60;;
3922;SDS011;1976;51.694;6.256;2023-10-19T01:41:25;26.57;;;1.97;;
3922;SDS011;1976;51.694;6.256;2023-10-19T01:43:52;1.43;;;1.33;;
3922;SDS011;1976;51.694;6.256;2023-10-19T01:46:19;0.60;;;0.60;;
3922;SDS011;1976;51.694;6.256;2023-10-19T01:48:51;0.80;;;0.80;;
3922;SDS011;1976;51.694;6.256;2023-10-19T01:51:23;0.80;;;0.80;;
3922;SDS011;1976;51.694;6.256;2023-10-19T01:53:51;0.70;;;0.70;;
3922;SDS011;1976;51.694;6.256;2023-10-19T01:56:20;0.60;;;0.60;;
3922;SDS011;1976;51.694;6.256;2023-10-19T01:58:46;0.60;;;0.60;;
3922;SDS011;1976;51.694;6.256;2023-10-19T02:01:13;0.60;;;0.60;;
3922;SDS011;1976;51.694;6.256;2023-10-19T02:03:51;1.03;;;1.00;;
3922;SDS011;1976;51.694;6.256;2023-10-19T02:06:23;0.90;;;0.77;;
3922;SDS011;1976;51.694;6.256;2023-10-19T02:08:58;0.70;;;0.70;;
3922;SDS011;1976;51.694;6.256;2023-10-19T02:11:34;0.60;;;0.60;;
3922;SDS011;1976;51.694;6.256;2023-10-19T02:14:03;0.60;;;0.60;;
3922;SDS011;1976;51.694;6.256;2023-10-19T02:16:38;4.10;;;1.83;;
3922;SDS011;1976;51.694;6.256;2023-10-19T02:19:04;0.70;;;0.70;;
3922;SDS011;1976;51.694;6.256;2023-10-19T02:21:30;0.60;;;0.60;;
3922;SDS011;1976;51.694;6.256;2023-10-19T02:23:56;0.80;;;0.80;;
3922;SDS011;1976;51.694;6.256;2023-10-19T02:26:22;0.70;;;0.70;;
3922;SDS011;1976;51.694;6.256;2023-10-19T02:28:51;0.67;;;0.67;;
3922;SDS011;1976;51.694;6.256;2023-10-19T02:31:17;0.80;;;0.80;;
3922;SDS011;1976;51.694;6.256;2023-10-19T02:33:48;0.87;;;0.87;;
3922;SDS011;1976;51.694;6.256;2023-10-19T02:36:20;0.80;;;0.80;;
3922;SDS011;1976;51.694;6.256;2023-10-19T02:38:45;0.70;;;0.70;;
3922;SDS011;1976;51.694;6.256;2023-10-19T02:41:16;1.37;;;1.27;;
3922;SDS011;1976;51.694;6.256;2023-10-19T02:43:42;0.60;;;0.60;;
3922;SDS011;1976;51.694;6.256;2023-10-19T02:46:12;0.60;;;0.60;;
3922;SDS011;1976;51.694;6.256;2023-10-19T02:48:39;1.10;;;1.10;;
3922;SDS011;1976;51.694;6.256;2023-10-19T02:51:12;1.63;;;1.53;;
3922;SDS011;1976;51.694;6.256;2023-10-19T02:53:39;0.70;;;0.70;;
3922;SDS011;1976;51.694;6.256;2023-10-19T02:56:11;0.70;;;0.70;;
3922;SDS011;1976;51.694;6.256;2023-10-19T02:58:49;0.70;;;0.70;;
3922;SDS011;1976;51.694;6.256;2023-10-19T03:01:16;0.60;;;0.60;;
3922;SDS011;1976;51.694;6.256;2023-10-19T03:03:46;0.60;;;0.60;;
3922;SDS011;1976;51.694;6.256;2023-10-19T03:06:22;0.60;;;0.60;;
3922;SDS011;1976;51.694;6.256;2023-10-19T03:08:48;1.93;;;1.83;;
3922;SDS011;1976;51.694;6.256;2023-10-19T03:11:22;0.60;;;0.60;;
3922;SDS011;1976;51.694;6.256;2023-10-19T03:13:54;0.60;;;0.60;;
3922;SDS011;1976;51.694;6.256;2023-10-19T03:16:21;0.60;;;0.60;;
3922;SDS011;1976;51.694;6.256;2023-10-19T03:18:47;0.70;;;0.70;;
3922;SDS011;1976;51.694;6.256;2023-10-19T03:21:13;0.60;;;0.60;;
3922;SDS011;1976;51.694;6.256;2023-10-19T03:23:38;0.80;;;0.80;;
3922;SDS011;1976;51.694;6.256;2023-10-19T03:26:05;0.70;;;0.70;;
3922;SDS011;1976;51.694;6.256;2023-10-19T03:28:50;0.60;;;0.60;;
3922;SDS011;1976;51.694;6.256;2023-10-19T03:31:20;0.80;;;0.80;;
3922;SDS011;1976;51.694;6.256;2023-10-19T03:33:48;0.60;;;0.60;;
3922;SDS011;1976;51.694;6.256;2023-10-19T03:36:19;0.60;;;0.60;;
3922;SDS011;1976;51.694;6.256;2023-10-19T03:38:45;1.00;;;1.00;;
3922;SDS011;1976;51.694;6.256;2023-10-19T03:41:11;0.60;;;0.60;;
3922;SDS011;1976;51.694;6.256;2023-10-19T03:43:37;0.60;;;0.60;;
3922;SDS011;1976;51.694;6.256;2023-10-19T03:46:06;0.60;;;0.60;;
3922;SDS011;1976;51.694;6.256;2023-10-19T03:48:47;0.90;;;0.90;;
3922;SDS011;1976;51.694;6.256;2023-10-19T03:51:12;0.60;;;0.60;;
3922;SDS011;1976;51.694;6.256;2023-10-19T03:53:39;0.67;;;0.67;;
3922;SDS011;1976;51.694;6.256;2023-10-19T03:56:09;0.60;;;0.60;;
3922;SDS011;1976;51.694;6.256;2023-10-19T03:58:36;0.60;;;0.60;;
3922;SDS011;1976;51.694;6.256;2023-10-19T04:01:03;0.60;;;0.60;;
3922;SDS011;1976;51.694;6.256;2023-10-19T04:03:30;0.60;;;0.60;;
3922;SDS011;1976;51.694;6.256;2023-10-19T04:05:56;0.60;;;0.60;;
3922;SDS011;1976;51.694;6.256;2023-10-19T04:08:25;0.70;;;0.70;;
3922;SDS011;1976;51.694;6.256;2023-10-19T04:10:51;0.60;;;0.60;;
3922;SDS011;1976;51.694;6.256;2023-10-19T04:13:36;0.60;;;0.60;;
3922;SDS011;1976;51.694;6.256;2023-10-19T04:16:02;0.60;;;0.60;;
3922;SDS011;1976;51.694;6.256;2023-10-19T04:18:28;0.60;;;0.60;;
3922;SDS011;1976;51.694;6.256;2023-10-19T04:20:53;0.60;;;0.60;;
3922;SDS011;1976;51.694;6.256;2023-10-19T04:23:19;1.33;;;1.23;;
3922;SDS011;1976;51.694;6.256;2023-10-19T04:25:52;0.80;;;0.80;;
3922;SDS011;1976;51.694;6.256;2023-10-19T04:28:21;0.60;;;0.60;;
3922;SDS011;1976;51.694;6.256;2023-10-19T04:30:56;0.60;;;0.60;;
3922;SDS011;1976;51.694;6.256;2023-10-19T04:33:31;0.60;;;0.60;;
3922;SDS011;1976;51.694;6.256;2023-10-19T04:35:59;0.60;;;0.60;;
3922;SDS011;1976;51.694;6.256;2023-10-19T04:38:26;2.93;;;2.20;;
3922;SDS011;1976;51.694;6.256;2023-10-19T04:40:52;0.90;;;0.90;;
3922;SDS011;1976;51.694;6.256;2023-10-19T04:43:18;0.60;;;0.60;;
3922;SDS011;1976;51.694;6.256;2023-10-19T04:45:46;0.60;;;0.60;;
3922;SDS011;1976;51.694;6.256;2023-10-19T04:48:11;0.60;;;0.60;;
3922;SDS011;1976;51.694;6.256;2023-10-19T04:50:37;0.60;;;0.60;;
3922;SDS011;1976;51.694;6.256;2023-10-19T04:53:02;0.60;;;0.60;;
3922;SDS011;1976;51.694;6.256;2023-10-19T04:55:29;0.60;;;0.60;;
3922;SDS011;1976;51.694;6.256;2023-10-19T04:57:55;0.70;;;0.70;;
3922;SDS011;1976;51.694;6.256;2023-10-19T05:00:22;0.60;;;0.60;;
3922;SDS011;1976;51.694;6.256;2023-10-19T05:02:49;0.60;;;0.60;;
3922;SDS011;1976;51.694;6.256;2023-10-19T05:05:17;1.33;;;1.00;;
3922;SDS011;1976;51.694;6.256;2023-10-19T05:07:43;0.60;;;0.60;;
3922;SDS011;1976;51.694;6.256;2023-10-19T05:10:09;0.60;;;0.60;;
3922;SDS011;1976;51.694;6.256;2023-10-19T05:12:34;0.60;;;0.60;;
3922;SDS011;1976;51.694;6.256;2023-10-19T05:15:00;0.60;;;0.60;;
3922;SDS011;1976;51.694;6.256;2023-10-19T05:17:26;0.60;;;0.60;;
3922;SDS011;1976;51.694;6.256;2023-10-19T05:19:52;0.60;;;0.60;;
3922;SDS011;1976;51.694;6.256;2023-10-19T05:22:18;0.70;;;0.70;;
3922;SDS011;1976;51.694;6.256;2023-10-19T05:24:44;0.60;;;0.60;;
3922;SDS011;1976;51.694;6.256;2023-10-19T05:27:10;0.60;;;0.60;;
3922;SDS011;1976;51.694;6.256;2023-10-19T05:29:35;0.60;;;0.60;;
3922;SDS011;1976;51.694;6.256;2023-10-19T05:32:05;0.60;;;0.60;;
3922;SDS011;1976;51.694;6.256;2023-10-19T05:34:30;0.60;;;0.60;;
3922;SDS011;1976;51.694;6.256;2023-10-19T05:37:00;0.70;;;0.70;;
3922;SDS011;1976;51.694;6.256;2023-10-19T05:39:27;0.60;;;0.60;;
3922;SDS011;1976;51.694;6.256;2023-10-19T05:41:53;0.60;;;0.60;;
3922;SDS011;1976;51.694;6.256;2023-10-19T05:44:20;0.60;;;0.60;;
3922;SDS011;1976;51.694;6.256;2023-10-19T05:46:45;0.90;;;0.90;;
3922;SDS011;1976;51.694;6.256;2023-10-19T05:49:12;0.60;;;0.60;;
3922;SDS011;1976;51.694;6.256;2023-10-19T05:51:37;0.60;;;0.60;;
3922;SDS011;1976;51.694;6.256;2023-10-19T05:54:04;0.60;;;0.60;;
3922;SDS011;1976;51.694;6.256;2023-10-19T05:56:33;0.60;;;0.60;;
3922;SDS011;1976;51.694;6.256;2023-10-19T05:59:01;0.60;;;0.60;;
3922;SDS011;1976;51.694;6.256;2023-10-19T06:01:27;0.60;;;0.60;;
3922;SDS011;1976;51.694;6.256;2023-10-19T06:03:52;2.40;;;1.10;;
3922;SDS011;1976;51.694;6.256;2023-10-19T06:06:19;0.60;;;0.60;;
3922;SDS011;1976;51.694;6.256;2023-10-19T06:08:45;0.60;;;0.60;;
3922;SDS011;1976;51.694;6.256;2023-10-19T06:11:10;0.60;;;0.60;;
3922;SDS011;1976;51.694;6.256;2023-10-19T06:13:36;0.60;;;0.60;;
3922;SDS011;1976;51.694;6.256;2023-10-19T06:16:02;0.60;;;0.60;;
3922;SDS011;1976;51.694;6.256;2023-10-19T06:18:27;0.60;;;0.60;;
3922;SDS011;1976;51.694;6.256;2023-10-19T06:20:54;0.60;;;0.60;;
3922;SDS011;1976;51.694;6.256;2023-10-19T06:23:20;0.60;;;0.60;;
3922;SDS011;1976;51.694;6.256;2023-10-19T06:25:45;0.70;;;0.70;;
3922;SDS011;1976;51.694;6.256;2023-10-19T06:28:11;4.67;;;1.53;;
3922;SDS011;1976;51.694;6.256;2023-10-19T06:30:37;0.70;;;0.70;;
3922;SDS011;1976;51.694;6.256;2023-10-19T06:33:05;0.60;;;0.60;;
3922;SDS011;1976;51.694;6.256;2023-10-19T06:35:31;0.60;;;0.60;;
3922;SDS011;1976;51.694;6.256;2023-10-19T06:37:57;0.70;;;0.70;;
3922;SDS011;1976;51.694;6.256;2023-10-19T06:40:28;0.60;;;0.60;;
3922;SDS011;1976;51.694;6.256;2023-10-19T06:42:56;0.70;;;0.70;;
3922;SDS011;1976;51.694;6.256;2023-10-19T06:45:23;0.60;;;0.60;;
3922;SDS011;1976;51.694;6.256;2023-10-19T06:47:50;1.63;;;1.53;;
3922;SDS011;1976;51.694;6.256;2023-10-19T06:50:20;0.60;;;0.60;;
3922;SDS011;1976;51.694;6.256;2023-10-19T06:52:48;0.60;;;0.60;;
3922;SDS011;1976;51.694;6.256;2023-10-19T06:55:15;0.60;;;0.60;;
3922;SDS011;1976;51.694;6.256;2023-10-19T06:57:43;1.47;;;1.33;;
3922;SDS011;1976;51.694;6.256;2023-10-19T07:00:12;0.60;;;0.60;;
3922;SDS011;1976;51.694;6.256;2023-10-19T07:02:43;0.60;;;0.60;;
3922;SDS011;1976;51.694;6.256;2023-10-19T07:05:09;0.60;;;0.60;;
3922;SDS011;1976;51.694;6.256;2023-10-19T07:07:36;0.60;;;0.60;;
3922;SDS011;1976;51.694;6.256;2023-10-19T07:10:13;0.60;;;0.60;;
3922;SDS011;1976;51.694;6.256;2023-10-19T07:12:43;0.90;;;0.87;;
3922;SDS011;1976;51.694;6.256;2023-10-19T07:15:10;0.67;;;0.67;;
3922;SDS011;1976;51.694;6.256;2023-10-19T07:17:39;0.60;;;0.60;;
3922;SDS011;1976;51.694;6.256;2023-10-19T07:20:08;0.60;;;0.60;;
3922;SDS011;1976;51.694;6.256;2023-10-19T07:22:50;0.60;;;0.60;;
3922;SDS011;1976;51.694;6.256;2023-10-19T07:25:30;0.60;;;0.60;;
3922;SDS011;1976;51.694;6.256;2023-10-19T07:27:56;0.70;;;0.70;;
3922;SDS011;1976;51.694;6.256;2023-10-19T07:30:24;0.60;;;0.60;;
3922;SDS011;1976;51.694;6.256;2023-10-19T07:32:53;0.60;;;0.60;;
3922;SDS011;1976;51.694;6.256;2023-10-19T07:35:25;0.60;;;0.60;;
3922;SDS011;1976;51.694;6.256;2023-10-19T07:37:52;0.60;;;0.60;;
3922;SDS011;1976;51.694;6.256;2023-10-19T07:40:18;0.60;;;0.60;;
3922;SDS011;1976;51.694;6.256;2023-10-19T07:42:46;0.70;;;0.70;;
3922;SDS011;1976;51.694;6.256;2023-10-19T07:45:14;0.93;;;0.93;;
3922;SDS011;1976;51.694;6.256;2023-10-19T07:47:40;0.60;;;0.60;;
3922;SDS011;1976;51.694;6.256;2023-10-19T07:50:07;0.60;;;0.60;;
3922;SDS011;1976;51.694;6.256;2023-10-19T07:52:41;0.60;;;0.60;;
3922;SDS011;1976;51.694;6.256;2023-10-19T07:55:15;0.60;;;0.60;;
3922;SDS011;1976;51.694;6.256;2023-10-19T07:57:42;0.60;;;0.60;;
3922;SDS011;1976;51.694;6.256;2023-10-19T08:00:08;0.60;;;0.60;;
3922;SDS011;1976;51.694;6.256;2023-10-19T08:02:36;0.60;;;0.60;;
3922;SDS011;1976;51.694;6.256;2023-10-19T08:05:12;0.60;;;0.60;;
3922;SDS011;1976;51.694;6.256;2023-10-19T08:07:39;0.60;;;0.60;;
3922;SDS011;1976;51.694;6.256;2023-10-19T08:10:07;7.13;;;2.83;;
3922;SDS011;1976;51.694;6.256;2023-10-19T08:12:36;0.60;;;0.60;;
3922;SDS011;1976;51.694;6.256;2023-10-19T08:15:08;0.60;;;0.60;;
3922;SDS011;1976;51.694;6.256;2023-10-19T08:17:38;0.60;;;0.60;;
3922;SDS011;1976;51.694;6.256;2023-10-19T08:20:05;0.70;;;0.70;;
3922;SDS011;1976;51.694;6.256;2023-10-19T08:22:41;0.60;;;0.60;;
3922;SDS011;1976;51.694;6.256;2023-10-19T08:25:07;0.60;;;0.60;;
3922;SDS011;1976;51.694;6.256;2023-10-19T08:27:42;0.60;;;0.60;;
3922;SDS011;1976;51.694;6.256;2023-10-19T08:30:15;0.60;;;0.60;;
3922;SDS011;1976;51.694;6.256;2023-10-19T08:32:43;0.60;;;0.60;;
3922;SDS011;1976;51.694;6.256;2023-10-19T08:35:12;1.23;;;1.03;;
3922;SDS011;1976;51.694;6.256;2023-10-19T08:37:52;0.60;;;0.60;;
3922;SDS011;1976;51.694;6.256;2023-10-19T08:40:18;0.60;;;0.60;;
3922;SDS011;1976;51.694;6.256;2023-10-19T08:42:46;0.60;;;0.60;;
3922;SDS011;1976;51.694;6.256;2023-10-19T08:45:13;0.57;;;0.57;;
3922;SDS011;1976;51.694;6.256;2023-10-19T08:50:34;1.37;;;1.13;;
3922;SDS011;1976;51.694;6.256;2023-10-19T08:53:01;0.60;;;0.60;;
3922;SDS011;1976;51.694;6.256;2023-10-19T08:55:30;0.90;;;0.70;;
3922;SDS011;1976;51.694;6.256;2023-10-19T08:57:59;0.53;;;0.50;;
3922;SDS011;1976;51.694;6.256;2023-10-19T09:00:25;0.60;;;0.60;;
3922;SDS011;1976;51.694;6.256;2023-10-19T09:02:54;0.50;;;0.50;;
3922;SDS011;1976;51.694;6.256;2023-10-19T09:05:21;0.60;;;0.60;;
3922;SDS011;1976;51.694;6.256;2023-10-19T09:07:48;0.60;;;0.60;;
3922;SDS011;1976;51.694;6.256;2023-10-19T09:10:20;0.60;;;0.60;;
3922;SDS011;1976;51.694;6.256;2023-10-19T09:13:08;0.60;;;0.60;;
3922;SDS011;1976;51.694;6.256;2023-10-19T09:15:34;0.57;;;0.57;;
3922;SDS011;1976;51.694;6.256;2023-10-19T09:20:40;0.60;;;0.60;;
3922;SDS011;1976;51.694;6.256;2023-10-19T09:23:07;0.60;;;0.60;;
3922;SDS011;1976;51.694;6.256;2023-10-19T09:25:33;0.60;;;0.60;;
3922;SDS011;1976;51.694;6.256;2023-10-19T09:28:00;0.60;;;0.60;;
3922;SDS011;1976;51.694;6.256;2023-10-19T09:30:27;0.50;;;0.50;;
3922;SDS011;1976;51.694;6.256;2023-10-19T09:32:56;0.70;;;0.70;;
3922;SDS011;1976;51.694;6.256;2023-10-19T09:35:24;0.60;;;0.60;;
3922;SDS011;1976;51.694;6.256;2023-10-19T09:37:53;0.60;;;0.60;;
3922;SDS011;1976;51.694;6.256;2023-10-19T09:40:19;0.60;;;0.60;;
3922;SDS011;1976;51.694;6.256;2023-10-19T09:42:46;0.60;;;0.60;;
3922;SDS011;1976;51.694;6.256;2023-10-19T09:45:15;0.50;;;0.50;;
3922;SDS011;1976;51.694;6.256;2023-10-19T09:47:48;0.60;;;0.60;;
3922;SDS011;1976;51.694;6.256;2023-10-19T09:50:16;0.60;;;0.60;;
3922;SDS011;1976;51.694;6.256;2023-10-19T09:52:41;0.57;;;0.57;;
3922;SDS011;1976;51.694;6.256;2023-10-19T09:55:12;0.60;;;0.60;;
3922;SDS011;1976;51.694;6.256;2023-10-19T09:57:51;0.60;;;0.50;;
3922;SDS011;1976;51.694;6.256;2023-10-19T10:00:21;0.50;;;0.50;;
3922;SDS011;1976;51.694;6.256;2023-10-19T10:02:50;0.70;;;0.70;;
3922;SDS011;1976;51.694;6.256;2023-10-19T10:10:42;0.57;;;0.50;;
3922;SDS011;1976;51.694;6.256;2023-10-19T10:15:49;0.60;;;0.60;;
3922;SDS011;1976;51.694;6.256;2023-10-19T10:18:16;0.50;;;0.50;;
3922;SDS011;1976;51.694;6.256;2023-10-19T10:20:42;0.60;;;0.50;;
3922;SDS011;1976;51.694;6.256;2023-10-19T10:23:20;0.50;;;0.50;;
3922;SDS011;1976;51.694;6.256;2023-10-19T10:25:46;0.50;;;0.50;;
3922;SDS011;1976;51.694;6.256;2023-10-19T10:28:18;0.50;;;0.50;;
3922;SDS011;1976;51.694;6.256;2023-10-19T10:33:51;0.50;;;0.50;;
3922;SDS011;1976;51.694;6.256;2023-10-19T10:36:19;0.50;;;0.50;;
3922;SDS011;1976;51.694;6.256;2023-10-19T10:38:49;0.50;;;0.50;;
3922;SDS011;1976;51.694;6.256;2023-10-19T10:41:22;4.87;;;0.70;;
3922;SDS011;1976;51.694;6.256;2023-10-19T10:43:53;0.50;;;0.50;;
3922;SDS011;1976;51.694;6.256;2023-10-19T10:46:20;0.50;;;0.50;;
3922;SDS011;1976;51.694;6.256;2023-10-19T10:48:50;0.50;;;0.50;;
3922;SDS011;1976;51.694;6.256;2023-10-19T10:53:43;0.50;;;0.50;;
3922;SDS011;1976;51.694;6.256;2023-10-19T10:56:12;0.60;;;0.60;;
3922;SDS011;1976;51.694;6.256;2023-10-19T10:58:38;0.60;;;0.60;;
3922;SDS011;1976;51.694;6.256;2023-10-19T11:01:05;0.50;;;0.50;;
3922;SDS011;1976;51.694;6.256;2023-10-19T11:03:30;0.80;;;0.80;;
3922;SDS011;1976;51.694;6.256;2023-10-19T11:06:02;0.60;;;0.60;;
3922;SDS011;1976;51.694;6.256;2023-10-19T11:08:29;0.50;;;0.50;;
3922;SDS011;1976;51.694;6.256;2023-10-19T11:11:01;0.60;;;0.60;;
3922;SDS011;1976;51.694;6.256;2023-10-19T11:13:36;0.50;;;0.50;;
3922;SDS011;1976;51.694;6.256;2023-10-19T11:16:03;0.50;;;0.50;;
3922;SDS011;1976;51.694;6.256;2023-10-19T11:18:40;0.50;;;0.50;;
3922;SDS011;1976;51.694;6.256;2023-10-19T11:21:11;0.50;;;0.50;;
3922;SDS011;1976;51.694;6.256;2023-10-19T11:23:41;0.50;;;0.50;;
3922;SDS011;1976;51.694;6.256;2023-10-19T11:26:09;0.50;;;0.50;;
3922;SDS011;1976;51.694;6.256;2023-10-19T11:28:35;0.50;;;0.50;;
3922;SDS011;1976;51.694;6.256;2023-10-19T11:31:18;0.60;;;0.60;;
3922;SDS011;1976;51.694;6.256;2023-10-19T11:33:48;0.60;;;0.60;;
3922;SDS011;1976;51.694;6.256;2023-10-19T11:36:15;0.50;;;0.50;;
3922;SDS011;1976;51.694;6.256;2023-10-19T11:38:42;0.50;;;0.50;;
3922;SDS011;1976;51.694;6.256;2023-10-19T11:41:10;1.10;;;1.10;;
3922;SDS011;1976;51.694;6.256;2023-10-19T11:43:38;0.50;;;0.50;;
3922;SDS011;1976;51.694;6.256;2023-10-19T11:46:04;0.50;;;0.50;;
3922;SDS011;1976;51.694;6.256;2023-10-19T11:48:30;0.50;;;0.50;;
3922;SDS011;1976;51.694;6.256;2023-10-19T11:51:01;0.50;;;0.50;;
3922;SDS011;1976;51.694;6.256;2023-10-19T11:53:29;0.60;;;0.50;;
3922;SDS011;1976;51.694;6.256;2023-10-19T11:56:06;0.60;;;0.50;;
3922;SDS011;1976;51.694;6.256;2023-10-19T11:58:33;0.50;;;0.50;;
3922;SDS011;1976;51.694;6.256;2023-10-19T12:01:00;0.70;;;0.60;;
3922;SDS011;1976;51.694;6.256;2023-10-19T12:03:26;0.60;;;0.50;;
3922;SDS011;1976;51.694;6.256;2023-10-19T12:05:53;0.60;;;0.50;;
3922;SDS011;1976;51.694;6.256;2023-10-19T12:08:19;0.60;;;0.50;;
3922;SDS011;1976;51.694;6.256;2023-10-19T12:10:44;2.40;;;1.10;;
3922;SDS011;1976;51.694;6.256;2023-10-19T12:13:10;0.60;;;0.50;;
3922;SDS011;1976;51.694;6.256;2023-10-19T12:15:35;0.60;;;0.50;;
3922;SDS011;1976;51.694;6.256;2023-10-19T12:18:01;0.60;;;0.50;;
3922;SDS011;1976;51.694;6.256;2023-10-19T12:20:28;0.60;;;0.60;;
3922;SDS011;1976;51.694;6.256;2023-10-19T12:22:57;0.60;;;0.53;;
3922;SDS011;1976;51.694;6.256;2023-10-19T12:25:23;0.60;;;0.50;;
3922;SDS011;1976;51.694;6.256;2023-10-19T12:27:57;0.60;;;0.50;;
3922;SDS011;1976;51.694;6.256;2023-10-19T12:30:23;0.60;;;0.60;;
3922;SDS011;1976;51.694;6.256;2023-10-19T12:32:51;0.60;;;0.60;;
3922;SDS011;1976;51.694;6.256;2023-10-19T12:35:19;0.60;;;0.60;;
3922;SDS011;1976;51.694;6.256;2023-10-19T12:37:49;0.60;;;0.57;;
3922;SDS011;1976;51.694;6.256;2023-10-19T12:40:20;4.70;;;2.50;;
3922;SDS011;1976;51.694;6.256;2023-10-19T12:42:53;7.20;;;2.30;;
3922;SDS011;1976;51.694;6.256;2023-10-19T12:45:23;17.60;;;3.37;;
3922;SDS011;1976;51.694;6.256;2023-10-19T12:47:49;19.67;;;2.70;;
3922;SDS011;1976;51.694;6.256;2023-10-19T12:50:17;9.63;;;3.93;;
3922;SDS011;1976;51.694;6.256;2023-10-19T12:52:47;9.93;;;2.53;;
3922;SDS011;1976;51.694;6.256;2023-10-19T12:55:14;11.10;;;2.43;;
3922;SDS011;1976;51.694;6.256;2023-10-19T12:57:40;9.00;;;2.47;;
3922;SDS011;1976;51.694;6.256;2023-10-19T13:00:06;11.77;;;2.33;;
3922;SDS011;1976;51.694;6.256;2023-10-19T13:02:48;3.93;;;2.00;;
3922;SDS011;1976;51.694;6.256;2023-10-19T13:05:14;9.90;;;2.53;;
3922;SDS011;1976;51.694;6.256;2023-10-19T13:07:43;3.73;;;1.83;;
3922;SDS011;1976;51.694;6.256;2023-10-19T13:10:09;19.97;;;2.63;;
3922;SDS011;1976;51.694;6.256;2023-10-19T13:12:36;7.53;;;1.90;;
3922;SDS011;1976;51.694;6.256;2023-10-19T13:15:03;10.57;;;2.70;;
3922;SDS011;1976;51.694;6.256;2023-10-19T13:17:36;6.67;;;2.57;;
3922;SDS011;1976;51.694;6.256;2023-10-19T13:20:02;8.57;;;2.50;;
3922;SDS011;1976;51.694;6.256;2023-10-19T13:22:40;10.30;;;3.10;;
3922;SDS011;1976;51.694;6.256;2023-10-19T13:25:06;12.87;;;2.67;;
3922;SDS011;1976;51.694;6.256;2023-10-19T13:27:34;8.57;;;3.00;;
3922;SDS011;1976;51.694;6.256;2023-10-19T13:30:00;8.90;;;2.47;;
3922;SDS011;1976;51.694;6.256;2023-10-19T13:32:29;15.80;;;2.57;;
3922;SDS011;1976;51.694;6.256;2023-10-19T13:34:56;7.30;;;2.40;;
3922;SDS011;1976;51.694;6.256;2023-10-19T13:37:21;16.73;;;3.10;;
3922;SDS011;1976;51.694;6.256;2023-10-19T13:39:50;14.20;;;2.40;;
3922;SDS011;1976;51.694;6.256;2023-10-19T13:42:16;11.33;;;2.57;;
3922;SDS011;1976;51.694;6.256;2023-10-19T13:44:41;5.70;;;2.57;;
3922;SDS011;1976;51.694;6.256;2023-10-19T13:47:07;10.80;;;2.90;;
3922;SDS011;1976;51.694;6.256;2023-10-19T13:49:34;12.30;;;2.37;;
3922;SDS011;1976;51.694;6.256;2023-10-19T13:52:00;5.10;;;2.10;;
3922;SDS011;1976;51.694;6.256;2023-10-19T13:54:25;15.47;;;2.90;;
3922;SDS011;1976;51.694;6.256;2023-10-19T13:56:51;8.70;;;2.00;;
3922;SDS011;1976;51.694;6.256;2023-10-19T13:59:17;12.23;;;3.33;;
3922;SDS011;1976;51.694;6.256;2023-10-19T14:01:43;6.83;;;2.40;;
3922;SDS011;1976;51.694;6.256;2023-10-19T14:04:09;6.90;;;2.30;;
3922;SDS011;1976;51.694;6.256;2023-10-19T14:06:35;13.43;;;3.27;;
3922;SDS011;1976;51.694;6.256;2023-10-19T14:09:00;11.03;;;2.47;;
3922;SDS011;1976;51.694;6.256;2023-10-19T14:11:26;11.07;;;2.37;;
3922;SDS011;1976;51.694;6.256;2023-10-19T14:13:52;9.40;;;2.60;;
3922;SDS011;1976;51.694;6.256;2023-10-19T14:16:18;9.07;;;3.00;;
3922;SDS011;1976;51.694;6.256;2023-10-19T14:18:43;4.10;;;2.30;;
3922;SDS011;1976;51.694;6.256;2023-10-19T14:21:13;9.57;;;3.30;;
3922;SDS011;1976;51.694;6.256;2023-10-19T14:23:40;14.83;;;6.57;;
3922;SDS011;1976;51.694;6.256;2023-10-19T14:26:06;9.90;;;4.03;;
3922;SDS011;1976;51.694;6.256;2023-10-19T14:28:32;9.33;;;3.13;;
3922;SDS011;1976;51.694;6.256;2023-10-19T14:30:57;19.37;;;3.00;;
3922;SDS011;1976;51.694;6.256;2023-10-19T14:33:23;8.17;;;2.60;;
3922;SDS011;1976;51.694;6.256;2023-10-19T14:35:48;25.43;;;3.93;;
3922;SDS011;1976;51.694;6.256;2023-10-19T14:38:15;11.03;;;2.80;;
3922;SDS011;1976;51.694;6.256;2023-10-19T14:40:40;7.10;;;2.73;;
3922;SDS011;1976;51.694;6.256;2023-10-19T14:43:10;12.93;;;3.40;;
3922;SDS011;1976;51.694;6.256;2023-10-19T14:45:36;6.23;;;2.70;;
3922;SDS011;1976;51.694;6.256;2023-10-19T14:48:02;16.60;;;3.20;;
3922;SDS011;1976;51.694;6.256;2023-10-19T14:50:29;14.60;;;3.20;;
3922;SDS011;1976;51.694;6.256;2023-10-19T14:52:55;6.70;;;2.47;;
3922;SDS011;1976;51.694;6.256;2023-10-19T14:55:21;10.80;;;3.37;;
3922;SDS011;1976;51.694;6.256;2023-10-19T14:57:47;11.20;;;3.20;;
3922;SDS011;1976;51.694;6.256;2023-10-19T15:00:15;13.83;;;3.53;;
3922;SDS011;1976;51.694;6.256;2023-10-19T15:02:59;13.43;;;3.13;;
3922;SDS011;1976;51.694;6.256;2023-10-19T15:05:27;11.87;;;3.13;;
3922;SDS011;1976;51.694;6.256;2023-10-19T15:07:53;13.70;;;3.60;;
3922;SDS011;1976;51.694;6.256;2023-10-19T15:10:24;16.90;;;4.37;;
3922;SDS011;1976;51.694;6.256;2023-10-19T15:12:51;26.13;;;3.70;;
3922;SDS011;1976;51.694;6.256;2023-10-19T15:15:17;8.97;;;3.10;;
3922;SDS011;1976;51.694;6.256;2023-10-19T15:17:43;11.40;;;2.97;;
3922;SDS011;1976;51.694;6.256;2023-10-19T15:20:10;19.00;;;3.40;;
3922;SDS011;1976;51.694;6.256;2023-10-19T15:22:37;10.03;;;3.50;;
3922;SDS011;1976;51.694;6.256;2023-10-19T15:25:03;11.00;;;2.93;;
3922;SDS011;1976;51.694;6.256;2023-10-19T15:27:30;9.07;;;2.63;;
3922;SDS011;1976;51.694;6.256;2023-10-19T15:29:56;9.90;;;3.40;;
3922;SDS011;1976;51.694;6.256;2023-10-19T15:32:22;8.03;;;2.90;;
3922;SDS011;1976;51.694;6.256;2023-10-19T15:34:49;6.43;;;2.70;;
3922;SDS011;1976;51.694;6.256;2023-10-19T15:37:15;15.57;;;3.60;;
3922;SDS011;1976;51.694;6.256;2023-10-19T15:39:41;5.00;;;2.33;;
3922;SDS011;1976;51.694;6.256;2023-10-19T15:42:09;5.47;;;2.70;;
3922;SDS011;1976;51.694;6.256;2023-10-19T15:44:35;7.10;;;2.73;;